Time;durP1;ratioP1;P1;durP2;ratioP2;P2;SDS_P1;SDS_P2;PMS_P1;PMS_P2;Temp;Humidity;BMP_temperature;BMP_pressure;BME280_temperature;BME280_humidity;BME280_pressure;Samples;Min_cycle;Max_cycle;Signal;HPM_P1;HPM_P2
2021/12/30 00:00:20;;;;;;;;;;;16.00;50.30;;;;;;5093864;28;20283;-61
2021/12/30 00:02:46;;;;;;;;;;;16.00;50.20;;;;;;5094117;28;19912;-61
2021/12/30 00:05:12;;;;;;;;;;;16.00;50.30;;;;;;5093767;28;20284;-61
2021/12/30 00:07:38;;;;;;;;;;;16.00;50.40;;;;;;5093860;28;19909;-61
2021/12/30 00:10:04;;;;;;;;;;;16.00;50.30;;;;;;5093742;28;20409;-61
2021/12/30 00:12:30;;;;;;;;;;;16.00;50.40;;;;;;5093536;28;19999;-61
2021/12/30 00:14:55;;;;;;;;;;;16.00;50.30;;;;;;5093656;28;20351;-61
2021/12/30 00:17:21;;;;;;;;;;;16.00;50.30;;;;;;5093590;28;19999;-61
2021/12/30 00:19:46;;;;;;;;;;;16.00;50.30;;;;;;5093823;28;19909;-61
2021/12/30 00:22:12;;;;;;;;;;;16.00;50.40;;;;;;5093460;28;19977;-61
2021/12/30 00:24:37;;;;;;;;;;;16.00;50.30;;;;;;5093693;28;19986;-61
2021/12/30 00:27:03;;;;;;;;;;;16.00;50.30;;;;;;5093470;28;20690;-61
2021/12/30 00:29:28;;;;;;;;;;;16.00;50.30;;;;;;5093455;28;19931;-61
2021/12/30 00:31:54;;;;;;;;;;;16.00;50.40;;;;;;5093419;28;19908;-61
2021/12/30 00:34:19;;;;;;;;;;;16.00;50.20;;;;;;5093662;28;19908;-61
2021/12/30 00:36:45;;;;;;;;;;;16.00;50.40;;;;;;5093378;28;20356;-61
2021/12/30 00:39:10;;;;;;;;;;;16.00;50.40;;;;;;5093367;28;20283;-61
2021/12/30 00:41:36;;;;;;;;;;;16.00;50.30;;;;;;5093385;28;19919;-61
2021/12/30 00:44:02;;;;;;;;;;;16.00;50.40;;;;;;5093471;28;19908;-61
2021/12/30 00:46:27;;;;;;;;;;;16.00;50.30;;;;;;5093232;28;20375;-61
2021/12/30 00:48:53;;;;;;;;;;;16.00;50.40;;;;;;5093341;28;19908;-61
2021/12/30 00:51:18;;;;;;;;;;;16.00;50.40;;;;;;5093184;28;19909;-61
2021/12/30 00:53:44;;;;;;;;;;;16.00;50.40;;;;;;5093147;28;19908;-62
2021/12/30 00:56:09;;;;;;;;;;;16.00;50.40;;;;;;5093114;28;19908;-61
2021/12/30 00:58:35;;;;;;;;;;;16.00;50.30;;;;;;5093090;28;19920;-61
2021/12/30 01:01:03;;;;;;;;;;;16.00;50.30;;;;;;5096113;28;19908;-61
2021/12/30 01:03:28;;;;;;;;;;;16.00;50.40;;;;;;5097030;28;19915;-61
2021/12/30 01:05:54;;;;;;;;;;;16.00;50.40;;;;;;5097096;28;19917;-61
2021/12/30 01:08:19;;;;;;;;;;;16.00;50.30;;;;;;5097345;28;19908;-61
2021/12/30 01:10:46;;;;;;;;;;;16.00;50.40;;;;;;5096873;28;19999;-61
2021/12/30 01:13:17;;;;;;;;;;;16.00;50.30;;;;;;5097011;28;20348;-61
2021/12/30 01:16:03;;;;;;;;;;;16.00;50.40;;;;;;5078797;28;19908;-62
2021/12/30 01:20:59;;;;;;;;;;;16.00;50.40;;;;;;5097181;28;20343;-61
2021/12/30 01:23:25;;;;;;;;;;;16.00;50.40;;;;;;5096980;28;19915;-61
2021/12/30 01:25:50;;;;;;;;;;;16.00;50.40;;;;;;5096753;28;20294;-61
2021/12/30 01:28:16;;;;;;;;;;;16.00;50.50;;;;;;5096614;28;19912;-61
2021/12/30 01:30:41;;;;;;;;;;;16.00;50.40;;;;;;5096515;28;20287;-61
2021/12/30 01:33:07;;;;;;;;;;;16.00;50.40;;;;;;5096330;28;19908;-61
2021/12/30 01:35:32;;;;;;;;;;;16.00;50.40;;;;;;5096267;28;19908;-61
2021/12/30 01:38:00;;;;;;;;;;;16.00;50.40;;;;;;5096627;28;19943;-60
2021/12/30 01:40:27;;;;;;;;;;;16.00;50.40;;;;;;5096274;28;19912;-61
2021/12/30 01:42:52;;;;;;;;;;;16.00;50.40;;;;;;5096213;28;19908;-61
2021/12/30 01:45:18;;;;;;;;;;;16.00;50.50;;;;;;5096082;28;19916;-61
2021/12/30 01:47:50;;;;;;;;;;;16.00;50.40;;;;;;5077984;28;19995;-61
2021/12/30 01:50:16;;;;;;;;;;;16.00;50.50;;;;;;5096017;28;19987;-61
2021/12/30 01:52:42;;;;;;;;;;;16.00;50.40;;;;;;5095985;28;19961;-61
2021/12/30 01:55:09;;;;;;;;;;;16.00;50.50;;;;;;5078078;28;19912;-61
2021/12/30 01:57:34;;;;;;;;;;;16.00;50.50;;;;;;5077942;28;19937;-61
2021/12/30 01:59:59;;;;;;;;;;;16.00;50.50;;;;;;5096095;28;19971;-61
2021/12/30 02:02:25;;;;;;;;;;;16.00;50.50;;;;;;5096276;28;19908;-61
2021/12/30 02:05:00;;;;;;;;;;;16.00;50.50;;;;;;5095886;28;19916;-61
2021/12/30 02:07:25;;;;;;;;;;;16.00;50.50;;;;;;5096012;28;19908;-61
2021/12/30 02:09:53;;;;;;;;;;;16.00;50.50;;;;;;5095960;28;19969;-61
2021/12/30 02:12:18;;;;;;;;;;;16.00;50.50;;;;;;5095020;28;19908;-61
2021/12/30 02:14:44;;;;;;;;;;;16.00;50.50;;;;;;5095854;28;20364;-61
2021/12/30 02:17:09;;;;;;;;;;;16.00;50.50;;;;;;5095657;28;19915;-61
2021/12/30 02:19:35;;;;;;;;;;;16.00;50.60;;;;;;5095608;28;19916;-61
2021/12/30 02:22:01;;;;;;;;;;;16.00;50.50;;;;;;5095640;28;19912;-60
2021/12/30 02:24:27;;;;;;;;;;;16.00;50.50;;;;;;5096092;28;19973;-61
2021/12/30 02:26:53;;;;;;;;;;;16.00;50.50;;;;;;5095559;28;19940;-61
2021/12/30 02:29:18;;;;;;;;;;;16.00;50.50;;;;;;5095609;28;19915;-61
2021/12/30 02:31:44;;;;;;;;;;;16.00;50.50;;;;;;5095403;28;19916;-61
2021/12/30 02:34:09;;;;;;;;;;;16.00;50.50;;;;;;5095587;28;19957;-61
2021/12/30 02:36:36;;;;;;;;;;;16.00;50.50;;;;;;5095321;28;19931;-60
2021/12/30 02:39:04;;;;;;;;;;;16.00;50.40;;;;;;5077366;28;19914;-61
2021/12/30 02:41:33;;;;;;;;;;;16.00;50.50;;;;;;5095257;28;20363;-60
2021/12/30 02:43:59;;;;;;;;;;;16.10;50.50;;;;;;5095317;28;20007;-60
2021/12/30 02:46:28;;;;;;;;;;;16.00;50.50;;;;;;5095021;28;19998;-60
2021/12/30 02:48:55;;;;;;;;;;;16.00;50.60;;;;;;5095212;28;20003;-60
2021/12/30 02:51:21;;;;;;;;;;;16.00;50.50;;;;;;5095223;28;19915;-60
2021/12/30 02:53:46;;;;;;;;;;;16.00;50.60;;;;;;5095211;28;19918;-60
2021/12/30 02:56:12;;;;;;;;;;;16.00;50.60;;;;;;5095274;28;19999;-60
2021/12/30 02:58:37;;;;;;;;;;;16.00;50.60;;;;;;5076601;28;19991;-60
2021/12/30 03:01:06;;;;;;;;;;;16.00;50.50;;;;;;5094848;28;19909;-60
2021/12/30 03:03:32;;;;;;;;;;;16.00;50.50;;;;;;5094834;28;19908;-60
2021/12/30 03:05:58;;;;;;;;;;;16.10;50.60;;;;;;5094981;28;20279;-60
2021/12/30 03:08:24;;;;;;;;;;;16.00;50.50;;;;;;5094749;28;20042;-60
2021/12/30 03:10:50;;;;;;;;;;;16.00;50.50;;;;;;5094705;28;19962;-64
2021/12/30 03:13:19;;;;;;;;;;;16.00;50.50;;;;;;5095019;28;19909;-60
2021/12/30 03:15:46;;;;;;;;;;;16.00;50.60;;;;;;5094562;28;20453;-61
2021/12/30 03:18:11;;;;;;;;;;;16.10;50.50;;;;;;5094760;28;19908;-61
2021/12/30 03:20:38;;;;;;;;;;;16.10;50.50;;;;;;5094619;28;20377;-61
2021/12/30 03:23:04;;;;;;;;;;;16.00;50.60;;;;;;5094334;28;19908;-60
2021/12/30 03:25:30;;;;;;;;;;;16.00;50.60;;;;;;5094437;28;19922;-61
2021/12/30 03:27:55;;;;;;;;;;;16.10;50.60;;;;;;5094371;28;19954;-60
2021/12/30 03:30:21;;;;;;;;;;;16.00;50.60;;;;;;5094612;28;19908;-60
2021/12/30 03:32:47;;;;;;;;;;;16.00;50.60;;;;;;5094361;28;20008;-60
2021/12/30 03:35:13;;;;;;;;;;;16.00;50.60;;;;;;5094548;28;19912;-61
2021/12/30 03:37:38;;;;;;;;;;;16.00;50.70;;;;;;5094210;28;19991;-60
2021/12/30 03:40:06;;;;;;;;;;;16.00;50.60;;;;;;5094249;28;19946;-60
2021/12/30 03:42:32;;;;;;;;;;;16.00;50.70;;;;;;5094043;28;19909;-60
2021/12/30 03:45:00;;;;;;;;;;;16.00;50.60;;;;;;5093940;28;19923;-60
2021/12/30 03:47:26;;;;;;;;;;;16.00;50.60;;;;;;5093961;28;20291;-60
2021/12/30 03:49:52;;;;;;;;;;;16.10;50.70;;;;;;5075804;28;19908;-61
2021/12/30 03:52:26;;;;;;;;;;;16.00;50.60;;;;;;5093891;28;19908;-60
2021/12/30 03:54:52;;;;;;;;;;;16.10;50.70;;;;;;5093942;28;19909;-60
2021/12/30 03:57:17;;;;;;;;;;;16.00;50.60;;;;;;5075509;28;19920;-60
2021/12/30 03:59:43;;;;;;;;;;;16.10;50.70;;;;;;5093867;28;19930;-60
2021/12/30 04:02:08;;;;;;;;;;;16.00;50.70;;;;;;5093847;28;20266;-60
2021/12/30 04:04:34;;;;;;;;;;;16.00;50.60;;;;;;5093667;28;19916;-60
2021/12/30 04:07:00;;;;;;;;;;;16.00;50.70;;;;;;5093687;28;19909;-61
2021/12/30 04:09:26;;;;;;;;;;;16.00;50.70;;;;;;5093789;28;19956;-61
2021/12/30 04:11:52;;;;;;;;;;;16.00;50.70;;;;;;5093710;28;20359;-61
2021/12/30 04:14:17;;;;;;;;;;;16.10;50.70;;;;;;5093817;28;19961;-60
2021/12/30 04:16:43;;;;;;;;;;;16.00;50.70;;;;;;5093989;28;20287;-60
2021/12/30 04:19:08;;;;;;;;;;;16.10;50.80;;;;;;5093956;28;20285;-61
2021/12/30 04:21:34;;;;;;;;;;;16.00;50.70;;;;;;5093840;28;19951;-60
2021/12/30 04:24:00;;;;;;;;;;;16.10;50.70;;;;;;5093644;28;19950;-60
2021/12/30 04:26:26;;;;;;;;;;;16.00;50.70;;;;;;5093439;28;20401;-60
2021/12/30 04:28:51;;;;;;;;;;;16.10;50.70;;;;;;5093717;28;20382;-61
2021/12/30 04:31:17;;;;;;;;;;;16.10;50.70;;;;;;5093571;28;20004;-61
2021/12/30 04:33:42;;;;;;;;;;;16.10;50.80;;;;;;5093514;28;19908;-61
2021/12/30 04:36:08;;;;;;;;;;;16.10;50.70;;;;;;5096899;28;20061;-61
2021/12/30 04:38:33;;;;;;;;;;;16.10;50.80;;;;;;5097523;28;19916;-61
2021/12/30 04:40:59;;;;;;;;;;;16.10;50.80;;;;;;5097652;28;19908;-60
2021/12/30 04:43:25;;;;;;;;;;;16.10;50.70;;;;;;5097837;28;19914;-60
2021/12/30 04:45:51;;;;;;;;;;;16.10;50.80;;;;;;5097727;28;20367;-60
2021/12/30 04:48:17;;;;;;;;;;;16.10;50.80;;;;;;5097577;28;20003;-60
2021/12/30 04:50:44;;;;;;;;;;;16.10;50.80;;;;;;5097352;28;19909;-61
2021/12/30 04:53:10;;;;;;;;;;;16.10;50.80;;;;;;5097642;28;19915;-61
2021/12/30 04:55:36;;;;;;;;;;;16.10;50.70;;;;;;5097301;28;19908;-61
2021/12/30 04:58:02;;;;;;;;;;;16.10;50.80;;;;;;5097060;28;19920;-61
2021/12/30 05:00:27;;;;;;;;;;;16.10;50.70;;;;;;5097477;28;19915;-61
2021/12/30 05:05:18;;;;;;;;;;;16.10;50.70;;;;;;5097383;28;19923;-60
2021/12/30 05:07:44;;;;;;;;;;;16.10;50.80;;;;;;5097166;28;19908;-61
2021/12/30 05:10:09;;;;;;;;;;;16.10;50.80;;;;;;5078925;28;19912;-61
2021/12/30 05:12:34;;;;;;;;;;;16.10;50.80;;;;;;5097204;28;19923;-60
2021/12/30 05:15:00;;;;;;;;;;;16.10;50.70;;;;;;5097238;28;20256;-60
2021/12/30 05:17:29;;;;;;;;;;;16.10;50.80;;;;;;5096891;28;20305;-60
2021/12/30 05:19:54;;;;;;;;;;;16.10;50.80;;;;;;5097073;28;19908;-60
2021/12/30 05:22:20;;;;;;;;;;;16.10;50.80;;;;;;5096901;28;19915;-60
2021/12/30 05:24:45;;;;;;;;;;;16.10;50.80;;;;;;5096932;28;20351;-61
2021/12/30 05:27:10;;;;;;;;;;;16.10;50.70;;;;;;5096985;28;19947;-61
2021/12/30 05:29:36;;;;;;;;;;;16.10;50.80;;;;;;5096746;28;19912;-60
2021/12/30 05:32:02;;;;;;;;;;;16.10;50.80;;;;;;5096886;28;19914;-61
2021/12/30 05:34:27;;;;;;;;;;;16.10;50.80;;;;;;5096617;28;20260;-60
2021/12/30 05:36:53;;;;;;;;;;;16.20;50.80;;;;;;5096466;28;19909;-60
2021/12/30 05:39:18;;;;;;;;;;;16.20;50.70;;;;;;5096656;28;20369;-60
2021/12/30 05:41:44;;;;;;;;;;;16.20;50.70;;;;;;5096462;28;20375;-61
2021/12/30 05:44:09;;;;;;;;;;;16.20;50.80;;;;;;5096555;28;19908;-60
2021/12/30 05:46:35;;;;;;;;;;;16.20;50.70;;;;;;5095022;28;20382;-60
2021/12/30 05:49:00;;;;;;;;;;;16.20;50.80;;;;;;5096377;28;19908;-61
2021/12/30 05:51:25;;;;;;;;;;;16.20;50.70;;;;;;5096256;28;20092;-60
2021/12/30 05:53:57;;;;;;;;;;;16.20;50.80;;;;;;5096218;28;19999;-61
2021/12/30 05:56:23;;;;;;;;;;;16.20;50.90;;;;;;5078004;28;19914;-61
2021/12/30 05:58:48;;;;;;;;;;;16.20;50.90;;;;;;5095994;28;19920;-60
2021/12/30 06:01:14;;;;;;;;;;;16.20;50.80;;;;;;5078021;28;19956;-60
2021/12/30 06:03:39;;;;;;;;;;;16.20;50.90;;;;;;5095993;28;19908;-61
2021/12/30 06:06:05;;;;;;;;;;;16.20;50.90;;;;;;5095985;28;20003;-61
2021/12/30 06:08:31;;;;;;;;;;;16.20;50.90;;;;;;5096092;28;20299;-61
2021/12/30 06:10:56;;;;;;;;;;;16.10;50.90;;;;;;5095938;28;19912;-61
2021/12/30 06:13:22;;;;;;;;;;;16.10;50.80;;;;;;5096091;28;19915;-61
2021/12/30 06:15:47;;;;;;;;;;;16.10;50.90;;;;;;5095664;28;20003;-60
2021/12/30 06:18:13;;;;;;;;;;;16.10;50.90;;;;;;5095751;28;19908;-60
2021/12/30 06:20:38;;;;;;;;;;;16.10;50.90;;;;;;5095941;28;20328;-61
2021/12/30 06:23:04;;;;;;;;;;;16.10;50.90;;;;;;5095648;28;19908;-61
2021/12/30 06:25:29;;;;;;;;;;;16.10;50.80;;;;;;5095527;28;19923;-61
2021/12/30 06:27:55;;;;;;;;;;;16.10;50.90;;;;;;5095599;28;19944;-61
2021/12/30 06:30:20;;;;;;;;;;;16.10;50.90;;;;;;5095788;28;20267;-61
2021/12/30 06:32:46;;;;;;;;;;;16.10;51.00;;;;;;5095436;28;19999;-61
2021/12/30 06:35:11;;;;;;;;;;;16.10;50.90;;;;;;5095511;28;19909;-60
2021/12/30 06:37:38;;;;;;;;;;;16.10;50.90;;;;;;5095411;28;19919;-60
2021/12/30 06:40:05;;;;;;;;;;;16.10;51.00;;;;;;5095370;28;19908;-61
2021/12/30 06:42:30;;;;;;;;;;;16.10;51.00;;;;;;5095278;28;20371;-60
2021/12/30 06:44:56;;;;;;;;;;;16.10;51.00;;;;;;5095162;28;19927;-61
2021/12/30 06:47:23;;;;;;;;;;;16.10;51.00;;;;;;5095153;28;19916;-61
2021/12/30 06:49:49;;;;;;;;;;;16.10;51.00;;;;;;5095205;28;19953;-61
2021/12/30 06:52:14;;;;;;;;;;;16.10;51.00;;;;;;5095052;28;19912;-61
2021/12/30 06:54:40;;;;;;;;;;;16.20;50.90;;;;;;5095234;28;20374;-61
2021/12/30 06:57:06;;;;;;;;;;;16.10;51.00;;;;;;5094833;28;20291;-61
2021/12/30 06:59:32;;;;;;;;;;;16.10;51.00;;;;;;5077056;28;19912;-61
2021/12/30 07:01:58;;;;;;;;;;;16.10;51.10;;;;;;5095117;28;20374;-60
2021/12/30 07:04:25;;;;;;;;;;;16.10;51.10;;;;;;5076782;28;20283;-61
2021/12/30 07:06:50;;;;;;;;;;;16.10;51.10;;;;;;5094832;28;20280;-61
2021/12/30 07:09:16;;;;;;;;;;;16.10;51.10;;;;;;5095201;28;19908;-61
2021/12/30 07:11:41;;;;;;;;;;;16.10;51.00;;;;;;5094961;28;19908;-60
2021/12/30 07:14:07;;;;;;;;;;;16.20;51.10;;;;;;5076865;28;20052;-60
2021/12/30 07:16:32;;;;;;;;;;;16.20;51.10;;;;;;5094948;28;20252;-61
2021/12/30 07:18:58;;;;;;;;;;;16.10;51.20;;;;;;5076577;28;19915;-61
2021/12/30 07:21:23;;;;;;;;;;;16.20;51.20;;;;;;5076420;28;19953;-60
2021/12/30 07:23:49;;;;;;;;;;;16.10;51.10;;;;;;5094435;28;20262;-61
2021/12/30 07:26:14;;;;;;;;;;;16.20;51.20;;;;;;5094682;28;19974;-61
2021/12/30 07:28:39;;;;;;;;;;;16.20;51.20;;;;;;5094641;28;20291;-60
2021/12/30 07:31:05;;;;;;;;;;;16.20;51.20;;;;;;5094508;28;19909;-60
2021/12/30 07:33:31;;;;;;;;;;;16.20;51.20;;;;;;5094473;28;20371;-60
2021/12/30 07:35:56;;;;;;;;;;;16.20;51.20;;;;;;5094387;28;20011;-61
2021/12/30 07:38:23;;;;;;;;;;;16.20;51.20;;;;;;5094559;28;19947;-61
2021/12/30 07:40:48;;;;;;;;;;;16.20;51.30;;;;;;5094416;28;19908;-61
2021/12/30 07:43:14;;;;;;;;;;;16.20;51.30;;;;;;5094054;28;19953;-61
2021/12/30 07:45:39;;;;;;;;;;;16.20;51.20;;;;;;5094211;28;19916;-61
2021/12/30 07:48:05;;;;;;;;;;;16.10;51.20;;;;;;5094038;28;19976;-61
2021/12/30 07:50:30;;;;;;;;;;;16.20;51.30;;;;;;5094005;28;19912;-61
2021/12/30 07:52:56;;;;;;;;;;;16.20;51.30;;;;;;5094229;28;19912;-61
2021/12/30 07:55:21;;;;;;;;;;;16.20;51.40;;;;;;5093893;28;19914;-61
2021/12/30 07:57:47;;;;;;;;;;;16.20;51.40;;;;;;5093740;28;19924;-62
2021/12/30 08:00:14;;;;;;;;;;;16.20;51.30;;;;;;5093833;28;19930;-61
2021/12/30 08:02:42;;;;;;;;;;;16.20;51.40;;;;;;5093854;28;19914;-61
2021/12/30 08:05:08;;;;;;;;;;;16.20;51.40;;;;;;5093959;28;19920;-60
2021/12/30 08:07:34;;;;;;;;;;;16.20;51.30;;;;;;5093742;28;19912;-61
2021/12/30 08:09:59;;;;;;;;;;;16.20;51.40;;;;;;5092989;28;19952;-61
2021/12/30 08:12:25;;;;;;;;;;;16.20;51.40;;;;;;5093670;28;19915;-61
2021/12/30 08:14:50;;;;;;;;;;;16.20;51.50;;;;;;5093868;28;20053;-60
2021/12/30 08:17:15;;;;;;;;;;;16.20;51.50;;;;;;5093924;28;19908;-61
2021/12/30 08:19:41;;;;;;;;;;;16.20;51.50;;;;;;5093635;28;19915;-61
2021/12/30 08:22:06;;;;;;;;;;;16.20;51.40;;;;;;5093461;28;19912;-61
2021/12/30 08:24:32;;;;;;;;;;;16.20;51.50;;;;;;5075494;28;19916;-60
2021/12/30 08:26:59;;;;;;;;;;;16.20;51.50;;;;;;5093846;28;19908;-60
2021/12/30 08:29:25;;;;;;;;;;;16.20;51.60;;;;;;5093370;28;20435;-60
2021/12/30 08:31:51;;;;;;;;;;;16.20;51.40;;;;;;5093564;28;19952;-61
2021/12/30 08:34:16;;;;;;;;;;;16.20;51.60;;;;;;5093500;28;19919;-61
2021/12/30 08:36:42;;;;;;;;;;;16.20;51.50;;;;;;5093686;28;19920;-61
2021/12/30 08:39:07;;;;;;;;;;;16.20;51.60;;;;;;5093410;28;20390;-61
2021/12/30 08:41:33;;;;;;;;;;;16.20;51.50;;;;;;5093650;28;19915;-60
2021/12/30 08:43:58;;;;;;;;;;;16.20;51.60;;;;;;5093543;28;19915;-61
2021/12/30 08:46:23;;;;;;;;;;;16.20;51.60;;;;;;5093257;28;19916;-61
2021/12/30 08:48:49;;;;;;;;;;;16.20;51.70;;;;;;5093261;28;19999;-63
2021/12/30 08:51:15;;;;;;;;;;;16.20;51.60;;;;;;5093073;28;20317;-61
2021/12/30 08:53:41;;;;;;;;;;;16.20;51.70;;;;;;5093104;28;19908;-61
2021/12/30 08:56:07;;;;;;;;;;;16.20;51.70;;;;;;5093211;28;19931;-61
2021/12/30 08:58:32;;;;;;;;;;;16.20;51.70;;;;;;5093068;28;20364;-61
2021/12/30 09:00:58;;;;;;;;;;;16.20;51.70;;;;;;5093167;28;20287;-61
2021/12/30 09:03:23;;;;;;;;;;;16.20;51.70;;;;;;5093186;28;20364;-60
2021/12/30 09:05:48;;;;;;;;;;;16.20;51.70;;;;;;5093021;28;19998;-61
2021/12/30 09:08:20;;;;;;;;;;;16.20;51.70;;;;;;5093145;28;19953;-61
2021/12/30 09:10:46;;;;;;;;;;;16.20;51.70;;;;;;5093387;28;19908;-61
2021/12/30 09:13:16;;;;;;;;;;;16.20;51.80;;;;;;5092963;28;19908;-60
2021/12/30 09:15:42;;;;;;;;;;;16.20;51.70;;;;;;5092995;28;20442;-60
2021/12/30 09:18:07;;;;;;;;;;;16.30;51.80;;;;;;5093018;28;20010;-60
2021/12/30 09:20:33;;;;;;;;;;;16.20;51.80;;;;;;5093529;28;20375;-61
2021/12/30 09:22:59;;;;;;;;;;;16.20;51.80;;;;;;5096764;28;20240;-60
2021/12/30 09:25:25;;;;;;;;;;;16.20;51.90;;;;;;5096777;28;19924;-60
2021/12/30 09:27:54;;;;;;;;;;;16.20;51.70;;;;;;5096747;28;20360;-60
2021/12/30 09:30:20;;;;;;;;;;;16.20;51.90;;;;;;5096593;28;19908;-60
2021/12/30 09:32:47;;;;;;;;;;;16.20;51.90;;;;;;5096444;28;19915;-61
2021/12/30 09:35:13;;;;;;;;;;;16.20;51.80;;;;;;5096476;28;20129;-60
2021/12/30 09:37:38;;;;;;;;;;;16.20;51.80;;;;;;5096467;28;19908;-61
2021/12/30 09:40:05;;;;;;;;;;;16.30;51.90;;;;;;5096365;28;19908;-61
2021/12/30 09:42:30;;;;;;;;;;;16.30;51.90;;;;;;5078240;28;19912;-61
2021/12/30 09:44:56;;;;;;;;;;;16.30;52.00;;;;;;5096073;28;19916;-61
2021/12/30 09:47:21;;;;;;;;;;;16.20;51.90;;;;;;5096119;28;19914;-60
2021/12/30 09:49:50;;;;;;;;;;;16.30;51.90;;;;;;5096215;28;19916;-61
2021/12/30 09:52:16;;;;;;;;;;;16.30;51.90;;;;;;5096674;28;19908;-61
2021/12/30 09:54:41;;;;;;;;;;;16.30;51.90;;;;;;5096226;28;19915;-61
2021/12/30 09:57:07;;;;;;;;;;;16.30;51.90;;;;;;5095922;28;19932;-61
2021/12/30 09:59:34;;;;;;;;;;;16.30;51.90;;;;;;5096013;28;19915;-61
2021/12/30 10:01:59;;;;;;;;;;;16.30;51.90;;;;;;5096001;28;20280;-61
2021/12/30 10:04:29;;;;;;;;;;;16.30;51.90;;;;;;5096200;28;19915;-61
2021/12/30 10:06:55;;;;;;;;;;;16.30;52.00;;;;;;5096122;28;20003;-61
2021/12/30 10:09:27;;;;;;;;;;;16.30;51.90;;;;;;5095924;28;19974;-61
2021/12/30 10:11:54;;;;;;;;;;;16.30;51.80;;;;;;5095886;28;19954;-60
2021/12/30 10:14:27;;;;;;;;;;;16.30;51.90;;;;;;5095679;28;19915;-61
2021/12/30 10:17:11;;;;;;;;;;;16.30;51.90;;;;;;5095648;28;20037;-61
2021/12/30 10:19:37;;;;;;;;;;;16.30;51.90;;;;;;5095620;28;19912;-61
2021/12/30 10:22:07;;;;;;;;;;;16.30;51.90;;;;;;5095867;28;20268;-61
2021/12/30 10:24:33;;;;;;;;;;;16.30;52.00;;;;;;5095508;28;20057;-61
2021/12/30 10:26:59;;;;;;;;;;;16.30;52.00;;;;;;5095422;28;20003;-60
2021/12/30 10:29:25;;;;;;;;;;;16.30;52.00;;;;;;5077247;28;19929;-61
2021/12/30 10:31:53;;;;;;;;;;;16.30;52.10;;;;;;5095040;28;20348;-61
2021/12/30 10:34:19;;;;;;;;;;;16.30;52.10;;;;;;5094983;28;19908;-62
2021/12/30 10:36:45;;;;;;;;;;;16.30;52.00;;;;;;5095148;28;20008;-60
2021/12/30 10:39:21;;;;;;;;;;;16.30;52.00;;;;;;5095139;28;20286;-60
2021/12/30 10:41:48;;;;;;;;;;;16.30;52.10;;;;;;5095179;28;19912;-60
2021/12/30 10:44:13;;;;;;;;;;;16.30;52.10;;;;;;5095015;28;20260;-61
2021/12/30 10:46:39;;;;;;;;;;;16.30;52.10;;;;;;5095081;28;19922;-61
2021/12/30 10:49:40;;;;;;;;;;;16.30;52.10;;;;;;5095078;28;19961;-61
2021/12/30 10:52:05;;;;;;;;;;;16.30;52.10;;;;;;5032684;28;19932;-61
2021/12/30 10:54:32;;;;;;;;;;;16.30;52.20;;;;;;5081532;28;20290;-61
2021/12/30 10:57:02;;;;;;;;;;;16.30;52.10;;;;;;5076913;28;19916;-61
2021/12/30 10:59:28;;;;;;;;;;;16.30;52.00;;;;;;5095102;28;19915;-61
2021/12/30 11:01:56;;;;;;;;;;;16.30;52.10;;;;;;5094728;28;19938;-61
2021/12/30 11:04:30;;;;;;;;;;;16.30;52.20;;;;;;5094733;28;20417;-61
2021/12/30 11:06:55;;;;;;;;;;;16.30;52.20;;;;;;5094791;28;20367;-61
2021/12/30 11:09:21;;;;;;;;;;;16.30;52.30;;;;;;5094784;28;19908;-61
2021/12/30 11:11:53;;;;;;;;;;;16.30;52.20;;;;;;5094355;28;19913;-61
2021/12/30 11:14:26;;;;;;;;;;;16.30;52.20;;;;;;5094700;28;19908;-61
2021/12/30 11:16:52;;;;;;;;;;;16.30;52.20;;;;;;5094401;28;19969;-61
2021/12/30 11:19:18;;;;;;;;;;;16.30;52.20;;;;;;5094271;28;19912;-61
2021/12/30 11:21:44;;;;;;;;;;;16.30;52.20;;;;;;5076146;28;19916;-61
2021/12/30 11:24:10;;;;;;;;;;;16.40;52.30;;;;;;5094536;28;19915;-61
2021/12/30 11:26:36;;;;;;;;;;;16.40;52.20;;;;;;5094283;28;19916;-61
2021/12/30 11:29:02;;;;;;;;;;;16.40;52.30;;;;;;5094065;28;19908;-61
2021/12/30 11:31:30;;;;;;;;;;;16.40;52.30;;;;;;5075947;28;20007;-61
2021/12/30 11:33:55;;;;;;;;;;;16.40;52.20;;;;;;5094234;28;19998;-61
2021/12/30 11:36:21;;;;;;;;;;;16.40;52.30;;;;;;5094370;28;19946;-61
2021/12/30 11:38:46;;;;;;;;;;;16.40;52.40;;;;;;5094402;28;19965;-61
2021/12/30 11:41:18;;;;;;;;;;;16.40;52.30;;;;;;5094449;28;19962;-61
2021/12/30 11:43:44;;;;;;;;;;;16.40;52.30;;;;;;5094098;28;19908;-61
2021/12/30 11:46:30;;;;;;;;;;;16.40;52.30;;;;;;5093799;28;20019;-61
2021/12/30 11:48:57;;;;;;;;;;;16.40;52.30;;;;;;5093608;28;20351;-61
2021/12/30 11:51:23;;;;;;;;;;;16.40;52.40;;;;;;5093877;28;20346;-61
2021/12/30 11:53:50;;;;;;;;;;;16.40;52.30;;;;;;5094137;28;19909;-61
2021/12/30 11:56:17;;;;;;;;;;;16.40;52.30;;;;;;5075612;28;19974;-61
2021/12/30 11:58:45;;;;;;;;;;;16.40;52.40;;;;;;5093495;28;19920;-61
2021/12/30 12:01:10;;;;;;;;;;;16.40;52.40;;;;;;5093881;28;19912;-61
2021/12/30 12:03:46;;;;;;;;;;;16.40;52.40;;;;;;5093807;28;19963;-61
2021/12/30 12:06:24;;;;;;;;;;;16.40;52.40;;;;;;5075490;28;20015;-61
2021/12/30 12:08:50;;;;;;;;;;;16.40;52.40;;;;;;5093532;28;19948;-61
2021/12/30 12:11:17;;;;;;;;;;;16.40;52.40;;;;;;5093524;28;19934;-61
2021/12/30 12:13:43;;;;;;;;;;;16.40;52.40;;;;;;5093277;28;20390;-61
2021/12/30 12:16:09;;;;;;;;;;;16.40;52.40;;;;;;5093634;28;19912;-61
2021/12/30 12:18:35;;;;;;;;;;;16.40;52.40;;;;;;5093418;28;20672;-61
2021/12/30 12:21:03;;;;;;;;;;;16.40;52.40;;;;;;5093474;28;19965;-61
2021/12/30 12:23:29;;;;;;;;;;;16.40;52.40;;;;;;5093332;28;19908;-61
2021/12/30 12:26:14;;;;;;;;;;;16.40;52.50;;;;;;5093925;28;20249;-61
2021/12/30 12:28:40;;;;;;;;;;;16.40;52.40;;;;;;5093578;28;19908;-61
2021/12/30 12:31:07;;;;;;;;;;;16.40;52.40;;;;;;5093572;28;19995;-61
2021/12/30 12:33:34;;;;;;;;;;;16.40;52.40;;;;;;5093411;28;19947;-62
2021/12/30 12:36:08;;;;;;;;;;;16.40;52.50;;;;;;5093146;28;19912;-61
2021/12/30 12:38:37;;;;;;;;;;;16.40;52.40;;;;;;5093299;28;20006;-61
2021/12/30 12:41:14;;;;;;;;;;;16.40;52.30;;;;;;5093466;28;19914;-61
2021/12/30 12:43:40;;;;;;;;;;;16.40;52.40;;;;;;5093519;28;19915;-61
2021/12/30 12:46:05;;;;;;;;;;;16.40;52.50;;;;;;5093401;28;19916;-61
2021/12/30 12:48:35;;;;;;;;;;;16.40;52.40;;;;;;5093096;28;19954;-61
2021/12/30 12:51:06;;;;;;;;;;;16.50;52.40;;;;;;5093198;28;19970;-61
2021/12/30 12:53:31;;;;;;;;;;;16.40;52.40;;;;;;5093218;28;19908;-61
2021/12/30 12:55:57;;;;;;;;;;;16.40;52.40;;;;;;5094414;28;19912;-61
2021/12/30 12:58:23;;;;;;;;;;;16.50;52.40;;;;;;5097061;28;19920;-61
2021/12/30 13:00:49;;;;;;;;;;;16.40;52.40;;;;;;5097383;28;19915;-61
2021/12/30 13:03:15;;;;;;;;;;;16.40;52.50;;;;;;5097056;28;19908;-61
2021/12/30 13:05:51;;;;;;;;;;;16.50;52.40;;;;;;5097026;28;19961;-61
2021/12/30 13:08:16;;;;;;;;;;;16.40;52.50;;;;;;5097104;28;19909;-61
2021/12/30 13:10:42;;;;;;;;;;;16.40;52.50;;;;;;5096984;28;19919;-61
2021/12/30 13:13:08;;;;;;;;;;;16.40;52.50;;;;;;5097182;28;19908;-61
2021/12/30 13:15:40;;;;;;;;;;;16.40;52.50;;;;;;5096977;28;19908;-61
2021/12/30 13:18:15;;;;;;;;;;;16.40;52.50;;;;;;5078428;28;20375;-61
2021/12/30 13:20:41;;;;;;;;;;;16.40;52.50;;;;;;5096835;28;19908;-61
2021/12/30 13:23:06;;;;;;;;;;;16.40;52.40;;;;;;5096657;28;19966;-59
2021/12/30 13:25:32;;;;;;;;;;;16.40;52.50;;;;;;5096616;28;20052;-61
2021/12/30 13:28:02;;;;;;;;;;;16.40;52.40;;;;;;5096615;28;19908;-60
2021/12/30 13:30:28;;;;;;;;;;;16.40;52.40;;;;;;5096841;28;19912;-60
2021/12/30 13:32:53;;;;;;;;;;;16.40;52.40;;;;;;5096486;28;19908;-60
2021/12/30 13:35:22;;;;;;;;;;;16.40;52.40;;;;;;5096716;28;20323;-60
2021/12/30 13:37:49;;;;;;;;;;;16.40;52.40;;;;;;5078779;28;19912;-60
2021/12/30 13:40:24;;;;;;;;;;;16.50;52.50;;;;;;5078603;28;19908;-60
2021/12/30 13:42:58;;;;;;;;;;;16.40;52.50;;;;;;5096263;28;20004;-60
2021/12/30 13:45:36;;;;;;;;;;;16.40;52.50;;;;;;5096388;28;19916;-60
2021/12/30 13:48:04;;;;;;;;;;;16.40;52.50;;;;;;5096067;28;20352;-60
2021/12/30 13:50:29;;;;;;;;;;;16.50;52.50;;;;;;5096187;28;19908;-60
2021/12/30 13:52:57;;;;;;;;;;;16.40;52.60;;;;;;5096100;28;19916;-60
2021/12/30 13:55:25;;;;;;;;;;;16.50;52.60;;;;;;5095965;28;19999;-60
2021/12/30 13:57:57;;;;;;;;;;;16.40;52.50;;;;;;5096004;28;19927;-60
2021/12/30 14:00:22;;;;;;;;;;;16.40;52.60;;;;;;5096164;28;19908;-60
2021/12/30 14:03:08;;;;;;;;;;;16.40;52.60;;;;;;5095825;28;19908;-60
2021/12/30 14:05:34;;;;;;;;;;;16.40;52.70;;;;;;5095755;28;19920;-60
2021/12/30 14:08:04;;;;;;;;;;;16.40;52.70;;;;;;5094572;28;19915;-60
2021/12/30 14:10:48;;;;;;;;;;;16.40;52.60;;;;;;5095874;28;19909;-60
2021/12/30 14:13:14;;;;;;;;;;;16.40;52.70;;;;;;5095922;28;19940;-60
2021/12/30 14:15:39;;;;;;;;;;;16.40;52.70;;;;;;5095510;28;19908;-60
2021/12/30 14:18:09;;;;;;;;;;;16.40;52.80;;;;;;5095682;28;20364;-60